sensor_id;sensor_type;location;lat;lon;timestamp;temperature;humidity
22212;DHT22;11275;52.488;13.462;2023-08-06T00:00:24;19.30;99.90
22212;DHT22;11275;52.488;13.462;2023-08-06T00:02:50;19.30;99.90
22212;DHT22;11275;52.488;13.462;2023-08-06T00:05:16;19.30;99.90
22212;DHT22;11275;52.488;13.462;2023-08-06T00:07:47;19.30;99.90
22212;DHT22;11275;52.488;13.462;2023-08-06T00:10:12;19.30;99.90
22212;DHT22;11275;52.488;13.462;2023-08-06T00:12:38;19.30;99.90
22212;DHT22;11275;52.488;13.462;2023-08-06T00:15:04;19.30;99.90
22212;DHT22;11275;52.488;13.462;2023-08-06T00:17:29;19.30;99.90
22212;DHT22;11275;52.488;13.462;2023-08-06T00:19:55;19.30;99.90
22212;DHT22;11275;52.488;13.462;2023-08-06T00:22:21;19.30;99.90
22212;DHT22;11275;52.488;13.462;2023-08-06T00:24:46;19.30;99.90
22212;DHT22;11275;52.488;13.462;2023-08-06T00:27:12;19.30;99.90
22212;DHT22;11275;52.488;13.462;2023-08-06T00:29:38;19.30;99.90
22212;DHT22;11275;52.488;13.462;2023-08-06T00:32:03;19.30;99.90
22212;DHT22;11275;52.488;13.462;2023-08-06T00:34:29;19.30;99.90
22212;DHT22;11275;52.488;13.462;2023-08-06T00:36:55;19.30;99.90
22212;DHT22;11275;52.488;13.462;2023-08-06T00:39:20;19.30;99.90
22212;DHT22;11275;52.488;13.462;2023-08-06T00:41:46;19.20;99.90
22212;DHT22;11275;52.488;13.462;2023-08-06T00:44:11;19.20;99.90
22212;DHT22;11275;52.488;13.462;2023-08-06T00:46:37;19.20;99.90
22212;DHT22;11275;52.488;13.462;2023-08-06T00:49:04;19.20;99.90
22212;DHT22;11275;52.488;13.462;2023-08-06T00:51:30;19.30;99.90
22212;DHT22;11275;52.488;13.462;2023-08-06T00:53:57;19.30;99.90
22212;DHT22;11275;52.488;13.462;2023-08-06T00:56:22;19.30;99.90
22212;DHT22;11275;52.488;13.462;2023-08-06T00:58:49;19.30;99.90
22212;DHT22;11275;52.488;13.462;2023-08-06T01:01:15;19.30;99.90
22212;DHT22;11275;52.488;13.462;2023-08-06T01:03:41;19.30;99.90
22212;DHT22;11275;52.488;13.462;2023-08-06T01:06:06;19.30;99.90
22212;DHT22;11275;52.488;13.462;2023-08-06T01:08:48;19.20;99.90
22212;DHT22;11275;52.488;13.462;2023-08-06T01:14:08;19.20;99.90
22212;DHT22;11275;52.488;13.462;2023-08-06T01:16:37;19.20;99.90
22212;DHT22;11275;52.488;13.462;2023-08-06T01:19:05;19.20;99.90
22212;DHT22;11275;52.488;13.462;2023-08-06T01:21:40;19.20;99.90
22212;DHT22;11275;52.488;13.462;2023-08-06T01:24:06;19.20;99.90
22212;DHT22;11275;52.488;13.462;2023-08-06T01:30:00;19.20;99.90
22212;DHT22;11275;52.488;13.462;2023-08-06T01:32:16;19.20;99.90
22212;DHT22;11275;52.488;13.462;2023-08-06T01:34:44;19.10;99.90
22212;DHT22;11275;52.488;13.462;2023-08-06T01:37:11;19.20;99.90
22212;DHT22;11275;52.488;13.462;2023-08-06T01:39:40;19.20;99.90
22212;DHT22;11275;52.488;13.462;2023-08-06T01:42:07;19.10;99.90
22212;DHT22;11275;52.488;13.462;2023-08-06T01:44:33;19.10;99.90
22212;DHT22;11275;52.488;13.462;2023-08-06T01:46:59;19.10;99.90
22212;DHT22;11275;52.488;13.462;2023-08-06T01:49:25;19.10;99.90
22212;DHT22;11275;52.488;13.462;2023-08-06T01:51:50;19.00;99.90
22212;DHT22;11275;52.488;13.462;2023-08-06T01:54:16;19.00;99.90
22212;DHT22;11275;52.488;13.462;2023-08-06T01:56:41;18.90;99.90
22212;DHT22;11275;52.488;13.462;2023-08-06T01:59:07;18.90;99.90
22212;DHT22;11275;52.488;13.462;2023-08-06T02:01:32;18.80;99.90
22212;DHT22;11275;52.488;13.462;2023-08-06T02:03:58;18.80;99.90
22212;DHT22;11275;52.488;13.462;2023-08-06T02:06:24;18.80;99.90
22212;DHT22;11275;52.488;13.462;2023-08-06T02:08:50;18.80;99.90
22212;DHT22;11275;52.488;13.462;2023-08-06T02:11:15;18.80;99.90
22212;DHT22;11275;52.488;13.462;2023-08-06T02:13:41;18.80;99.90
22212;DHT22;11275;52.488;13.462;2023-08-06T02:16:07;18.70;99.90
22212;DHT22;11275;52.488;13.462;2023-08-06T02:18:33;18.70;99.90
22212;DHT22;11275;52.488;13.462;2023-08-06T02:20:59;18.70;99.90
22212;DHT22;11275;52.488;13.462;2023-08-06T02:23:25;18.70;99.90
22212;DHT22;11275;52.488;13.462;2023-08-06T02:26:01;18.70;99.90
22212;DHT22;11275;52.488;13.462;2023-08-06T02:28:28;18.70;99.90
22212;DHT22;11275;52.488;13.462;2023-08-06T02:30:53;18.70;99.90
22212;DHT22;11275;52.488;13.462;2023-08-06T02:33:19;18.70;99.90
22212;DHT22;11275;52.488;13.462;2023-08-06T02:35:45;18.80;99.90
22212;DHT22;11275;52.488;13.462;2023-08-06T02:38:10;18.70;99.90
22212;DHT22;11275;52.488;13.462;2023-08-06T02:40:36;18.80;99.90
22212;DHT22;11275;52.488;13.462;2023-08-06T02:43:01;18.70;99.90
22212;DHT22;11275;52.488;13.462;2023-08-06T02:45:28;18.70;99.90
22212;DHT22;11275;52.488;13.462;2023-08-06T02:47:54;18.70;99.90
22212;DHT22;11275;52.488;13.462;2023-08-06T02:50:19;18.70;99.90
22212;DHT22;11275;52.488;13.462;2023-08-06T02:52:45;18.70;99.90
22212;DHT22;11275;52.488;13.462;2023-08-06T02:55:10;18.70;99.90
22212;DHT22;11275;52.488;13.462;2023-08-06T02:57:36;18.70;99.90
22212;DHT22;11275;52.488;13.462;2023-08-06T03:00:02;18.70;99.90
22212;DHT22;11275;52.488;13.462;2023-08-06T03:02:28;18.60;99.90
22212;DHT22;11275;52.488;13.462;2023-08-06T03:04:53;18.70;99.90
22212;DHT22;11275;52.488;13.462;2023-08-06T03:07:19;18.60;99.90
22212;DHT22;11275;52.488;13.462;2023-08-06T03:09:45;18.60;99.90
22212;DHT22;11275;52.488;13.462;2023-08-06T03:12:10;18.50;99.90
22212;DHT22;11275;52.488;13.462;2023-08-06T03:14:36;18.50;99.90
22212;DHT22;11275;52.488;13.462;2023-08-06T03:17:02;18.50;99.90
22212;DHT22;11275;52.488;13.462;2023-08-06T03:19:27;18.50;99.90
22212;DHT22;11275;52.488;13.462;2023-08-06T03:21:53;18.50;99.90
22212;DHT22;11275;52.488;13.462;2023-08-06T03:24:19;18.40;99.90
22212;DHT22;11275;52.488;13.462;2023-08-06T03:26:45;18.30;99.90
22212;DHT22;11275;52.488;13.462;2023-08-06T03:29:11;18.40;99.90
22212;DHT22;11275;52.488;13.462;2023-08-06T03:31:36;18.30;99.90
22212;DHT22;11275;52.488;13.462;2023-08-06T03:34:02;18.40;99.90
22212;DHT22;11275;52.488;13.462;2023-08-06T03:36:27;18.30;99.90
22212;DHT22;11275;52.488;13.462;2023-08-06T03:38:53;18.30;99.90
22212;DHT22;11275;52.488;13.462;2023-08-06T03:41:19;18.40;99.90
22212;DHT22;11275;52.488;13.462;2023-08-06T03:43:44;18.40;99.90
22212;DHT22;11275;52.488;13.462;2023-08-06T03:46:10;18.40;99.90
22212;DHT22;11275;52.488;13.462;2023-08-06T03:48:35;18.40;99.90
22212;DHT22;11275;52.488;13.462;2023-08-06T03:51:01;18.40;99.90
22212;DHT22;11275;52.488;13.462;2023-08-06T03:53:27;18.50;99.90
22212;DHT22;11275;52.488;13.462;2023-08-06T03:55:53;18.40;99.90
22212;DHT22;11275;52.488;13.462;2023-08-06T03:58:18;18.40;99.90
22212;DHT22;11275;52.488;13.462;2023-08-06T04:00:44;18.50;99.90
22212;DHT22;11275;52.488;13.462;2023-08-06T04:03:10;18.40;99.90
22212;DHT22;11275;52.488;13.462;2023-08-06T04:05:35;18.40;99.90
22212;DHT22;11275;52.488;13.462;2023-08-06T04:08:01;18.30;99.90
22212;DHT22;11275;52.488;13.462;2023-08-06T04:10:26;18.30;99.90
22212;DHT22;11275;52.488;13.462;2023-08-06T04:12:52;18.40;99.90
22212;DHT22;11275;52.488;13.462;2023-08-06T04:15:18;18.40;99.90
22212;DHT22;11275;52.488;13.462;2023-08-06T04:17:43;18.40;99.90
22212;DHT22;11275;52.488;13.462;2023-08-06T04:20:09;18.40;99.90
22212;DHT22;11275;52.488;13.462;2023-08-06T04:22:34;18.40;99.90
22212;DHT22;11275;52.488;13.462;2023-08-06T04:25:00;18.50;99.90
22212;DHT22;11275;52.488;13.462;2023-08-06T04:27:26;18.40;99.90
22212;DHT22;11275;52.488;13.462;2023-08-06T04:29:51;18.40;99.90
22212;DHT22;11275;52.488;13.462;2023-08-06T04:32:17;18.40;99.90
22212;DHT22;11275;52.488;13.462;2023-08-06T04:34:44;18.50;99.90
22212;DHT22;11275;52.488;13.462;2023-08-06T04:37:10;18.40;99.90
22212;DHT22;11275;52.488;13.462;2023-08-06T04:39:36;18.40;99.90
22212;DHT22;11275;52.488;13.462;2023-08-06T04:42:02;18.40;99.90
22212;DHT22;11275;52.488;13.462;2023-08-06T04:44:27;18.50;99.90
22212;DHT22;11275;52.488;13.462;2023-08-06T04:46:53;18.40;99.90
22212;DHT22;11275;52.488;13.462;2023-08-06T04:49:20;18.40;99.90
22212;DHT22;11275;52.488;13.462;2023-08-06T04:51:46;18.40;99.90
22212;DHT22;11275;52.488;13.462;2023-08-06T04:54:12;18.50;99.90
22212;DHT22;11275;52.488;13.462;2023-08-06T04:56:37;18.40;99.90
22212;DHT22;11275;52.488;13.462;2023-08-06T04:59:03;18.50;99.90
22212;DHT22;11275;52.488;13.462;2023-08-06T05:01:28;18.40;99.90
22212;DHT22;11275;52.488;13.462;2023-08-06T05:03:54;18.50;99.90
22212;DHT22;11275;52.488;13.462;2023-08-06T05:06:20;18.40;99.90
22212;DHT22;11275;52.488;13.462;2023-08-06T05:08:45;18.40;99.90
22212;DHT22;11275;52.488;13.462;2023-08-06T05:11:11;18.40;99.90
22212;DHT22;11275;52.488;13.462;2023-08-06T05:13:37;18.40;99.90
22212;DHT22;11275;52.488;13.462;2023-08-06T05:16:02;18.40;99.90
22212;DHT22;11275;52.488;13.462;2023-08-06T05:18:28;18.50;99.90
22212;DHT22;11275;52.488;13.462;2023-08-06T05:20:55;18.50;99.90
22212;DHT22;11275;52.488;13.462;2023-08-06T05:23:21;18.50;99.90
22212;DHT22;11275;52.488;13.462;2023-08-06T05:25:47;18.40;99.90
22212;DHT22;11275;52.488;13.462;2023-08-06T05:28:12;18.40;99.90
22212;DHT22;11275;52.488;13.462;2023-08-06T05:30:41;18.40;99.90
22212;DHT22;11275;52.488;13.462;2023-08-06T05:33:07;18.40;99.90
22212;DHT22;11275;52.488;13.462;2023-08-06T05:35:32;18.40;99.90
22212;DHT22;11275;52.488;13.462;2023-08-06T05:37:58;18.40;99.90
22212;DHT22;11275;52.488;13.462;2023-08-06T05:40:24;18.40;99.90
22212;DHT22;11275;52.488;13.462;2023-08-06T05:42:52;18.40;99.90
22212;DHT22;11275;52.488;13.462;2023-08-06T05:45:18;18.40;99.90
22212;DHT22;11275;52.488;13.462;2023-08-06T05:47:44;18.50;99.90
22212;DHT22;11275;52.488;13.462;2023-08-06T05:50:09;18.50;99.90
22212;DHT22;11275;52.488;13.462;2023-08-06T05:52:35;18.50;99.90
22212;DHT22;11275;52.488;13.462;2023-08-06T05:55:01;18.60;99.90
22212;DHT22;11275;52.488;13.462;2023-08-06T05:57:26;18.60;99.90
22212;DHT22;11275;52.488;13.462;2023-08-06T05:59:52;18.60;99.90
22212;DHT22;11275;52.488;13.462;2023-08-06T06:02:17;18.60;99.90
22212;DHT22;11275;52.488;13.462;2023-08-06T06:04:44;18.60;99.90
22212;DHT22;11275;52.488;13.462;2023-08-06T06:07:09;18.60;99.90
22212;DHT22;11275;52.488;13.462;2023-08-06T06:09:35;18.50;99.90
22212;DHT22;11275;52.488;13.462;2023-08-06T06:12:01;18.50;99.90
22212;DHT22;11275;52.488;13.462;2023-08-06T06:14:26;18.50;99.90
22212;DHT22;11275;52.488;13.462;2023-08-06T06:16:52;18.60;99.90
22212;DHT22;11275;52.488;13.462;2023-08-06T06:19:18;18.60;99.90
22212;DHT22;11275;52.488;13.462;2023-08-06T06:21:44;18.60;99.90
22212;DHT22;11275;52.488;13.462;2023-08-06T06:24:09;18.60;99.90
22212;DHT22;11275;52.488;13.462;2023-08-06T06:26:35;18.50;99.90
22212;DHT22;11275;52.488;13.462;2023-08-06T06:29:01;18.50;99.90
22212;DHT22;11275;52.488;13.462;2023-08-06T06:31:26;18.60;99.90
22212;DHT22;11275;52.488;13.462;2023-08-06T06:33:52;18.70;99.90
22212;DHT22;11275;52.488;13.462;2023-08-06T06:36:19;18.70;99.90
22212;DHT22;11275;52.488;13.462;2023-08-06T06:38:45;18.70;99.90
22212;DHT22;11275;52.488;13.462;2023-08-06T06:41:11;18.70;99.90
22212;DHT22;11275;52.488;13.462;2023-08-06T06:43:37;18.70;99.90
22212;DHT22;11275;52.488;13.462;2023-08-06T06:46:05;18.70;99.90
22212;DHT22;11275;52.488;13.462;2023-08-06T06:48:33;18.80;99.90
22212;DHT22;11275;52.488;13.462;2023-08-06T06:50:59;18.80;99.90
22212;DHT22;11275;52.488;13.462;2023-08-06T06:53:25;18.80;99.90
22212;DHT22;11275;52.488;13.462;2023-08-06T06:56:01;18.90;99.90
22212;DHT22;11275;52.488;13.462;2023-08-06T06:58:27;18.90;99.90
22212;DHT22;11275;52.488;13.462;2023-08-06T07:00:53;18.90;99.90
22212;DHT22;11275;52.488;13.462;2023-08-06T07:03:20;18.90;99.90
22212;DHT22;11275;52.488;13.462;2023-08-06T07:05:46;18.90;99.90
22212;DHT22;11275;52.488;13.462;2023-08-06T07:08:12;19.00;99.90
22212;DHT22;11275;52.488;13.462;2023-08-06T07:10:38;19.00;99.90
22212;DHT22;11275;52.488;13.462;2023-08-06T07:13:03;19.00;99.90
22212;DHT22;11275;52.488;13.462;2023-08-06T07:15:29;19.00;99.90
22212;DHT22;11275;52.488;13.462;2023-08-06T07:17:55;19.00;99.90
22212;DHT22;11275;52.488;13.462;2023-08-06T07:20:20;19.00;99.90
22212;DHT22;11275;52.488;13.462;2023-08-06T07:22:46;19.10;99.90
22212;DHT22;11275;52.488;13.462;2023-08-06T07:25:12;19.20;99.90
22212;DHT22;11275;52.488;13.462;2023-08-06T07:27:38;19.20;99.90
22212;DHT22;11275;52.488;13.462;2023-08-06T07:30:04;19.20;99.90
22212;DHT22;11275;52.488;13.462;2023-08-06T07:32:31;19.30;99.90
22212;DHT22;11275;52.488;13.462;2023-08-06T07:34:56;19.30;99.90
22212;DHT22;11275;52.488;13.462;2023-08-06T07:37:26;19.30;99.90
22212;DHT22;11275;52.488;13.462;2023-08-06T07:39:56;19.30;99.90
22212;DHT22;11275;52.488;13.462;2023-08-06T07:42:22;19.30;99.90
22212;DHT22;11275;52.488;13.462;2023-08-06T07:44:55;19.30;99.90
22212;DHT22;11275;52.488;13.462;2023-08-06T07:47:21;19.30;99.90
22212;DHT22;11275;52.488;13.462;2023-08-06T07:49:47;19.30;99.90
22212;DHT22;11275;52.488;13.462;2023-08-06T07:52:13;19.30;99.90
22212;DHT22;11275;52.488;13.462;2023-08-06T07:54:38;19.40;99.90
22212;DHT22;11275;52.488;13.462;2023-08-06T07:57:04;19.40;99.90
22212;DHT22;11275;52.488;13.462;2023-08-06T07:59:30;19.40;99.90
22212;DHT22;11275;52.488;13.462;2023-08-06T08:01:56;19.40;99.90
22212;DHT22;11275;52.488;13.462;2023-08-06T08:04:21;19.40;99.90
22212;DHT22;11275;52.488;13.462;2023-08-06T08:06:47;19.40;99.90
22212;DHT22;11275;52.488;13.462;2023-08-06T08:09:13;19.40;99.90
22212;DHT22;11275;52.488;13.462;2023-08-06T08:11:40;19.30;99.90
22212;DHT22;11275;52.488;13.462;2023-08-06T08:14:06;19.30;99.90
22212;DHT22;11275;52.488;13.462;2023-08-06T08:16:31;19.30;99.90
22212;DHT22;11275;52.488;13.462;2023-08-06T08:18:57;19.30;99.90
22212;DHT22;11275;52.488;13.462;2023-08-06T08:21:23;19.30;99.90
22212;DHT22;11275;52.488;13.462;2023-08-06T08:23:50;19.30;99.90
22212;DHT22;11275;52.488;13.462;2023-08-06T08:26:15;19.40;99.90
22212;DHT22;11275;52.488;13.462;2023-08-06T08:28:41;19.50;99.90
22212;DHT22;11275;52.488;13.462;2023-08-06T08:31:11;19.40;99.90
22212;DHT22;11275;52.488;13.462;2023-08-06T08:33:39;19.40;99.90
22212;DHT22;11275;52.488;13.462;2023-08-06T08:36:05;19.40;99.90
22212;DHT22;11275;52.488;13.462;2023-08-06T08:38:31;19.40;99.90
22212;DHT22;11275;52.488;13.462;2023-08-06T08:40:57;19.40;99.90
22212;DHT22;11275;52.488;13.462;2023-08-06T08:43:23;19.50;99.90
22212;DHT22;11275;52.488;13.462;2023-08-06T08:45:53;19.50;99.90
22212;DHT22;11275;52.488;13.462;2023-08-06T08:48:21;19.60;99.90
22212;DHT22;11275;52.488;13.462;2023-08-06T08:50:49;19.70;99.90
22212;DHT22;11275;52.488;13.462;2023-08-06T08:53:16;19.80;99.90
22212;DHT22;11275;52.488;13.462;2023-08-06T08:55:43;19.80;99.90
22212;DHT22;11275;52.488;13.462;2023-08-06T08:58:10;19.90;99.90
22212;DHT22;11275;52.488;13.462;2023-08-06T09:00:36;19.90;99.90
22212;DHT22;11275;52.488;13.462;2023-08-06T09:03:05;19.90;99.90
22212;DHT22;11275;52.488;13.462;2023-08-06T09:05:32;20.00;99.90
22212;DHT22;11275;52.488;13.462;2023-08-06T09:08:02;20.00;99.90
22212;DHT22;11275;52.488;13.462;2023-08-06T09:10:28;20.00;99.90
22212;DHT22;11275;52.488;13.462;2023-08-06T09:12:55;20.10;99.90
22212;DHT22;11275;52.488;13.462;2023-08-06T09:15:24;20.20;99.90
22212;DHT22;11275;52.488;13.462;2023-08-06T09:17:50;20.30;99.90
22212;DHT22;11275;52.488;13.462;2023-08-06T09:20:16;20.30;99.90
22212;DHT22;11275;52.488;13.462;2023-08-06T09:22:41;20.40;99.90
22212;DHT22;11275;52.488;13.462;2023-08-06T09:25:08;20.50;99.90
22212;DHT22;11275;52.488;13.462;2023-08-06T09:27:37;20.50;99.90
22212;DHT22;11275;52.488;13.462;2023-08-06T09:30:06;20.50;99.90
22212;DHT22;11275;52.488;13.462;2023-08-06T09:32:48;20.50;99.90
22212;DHT22;11275;52.488;13.462;2023-08-06T09:35:17;20.60;99.90
22212;DHT22;11275;52.488;13.462;2023-08-06T09:37:43;20.60;99.90
22212;DHT22;11275;52.488;13.462;2023-08-06T09:40:29;20.60;99.90
22212;DHT22;11275;52.488;13.462;2023-08-06T09:42:56;20.50;99.90
22212;DHT22;11275;52.488;13.462;2023-08-06T09:45:23;20.50;99.90
22212;DHT22;11275;52.488;13.462;2023-08-06T09:47:55;20.50;99.90
22212;DHT22;11275;52.488;13.462;2023-08-06T09:50:21;20.50;99.90
22212;DHT22;11275;52.488;13.462;2023-08-06T09:52:47;20.30;99.90
22212;DHT22;11275;52.488;13.462;2023-08-06T09:55:16;20.30;99.90
22212;DHT22;11275;52.488;13.462;2023-08-06T09:57:42;20.10;99.90
22212;DHT22;11275;52.488;13.462;2023-08-06T10:00:09;20.00;99.90
22212;DHT22;11275;52.488;13.462;2023-08-06T10:02:37;20.00;99.90
22212;DHT22;11275;52.488;13.462;2023-08-06T10:05:05;20.00;99.90
22212;DHT22;11275;52.488;13.462;2023-08-06T10:07:31;19.80;99.90
22212;DHT22;11275;52.488;13.462;2023-08-06T10:09:58;19.80;99.90
22212;DHT22;11275;52.488;13.462;2023-08-06T10:12:24;19.70;99.90
22212;DHT22;11275;52.488;13.462;2023-08-06T10:14:54;19.60;99.90
22212;DHT22;11275;52.488;13.462;2023-08-06T10:17:21;19.70;99.90
22212;DHT22;11275;52.488;13.462;2023-08-06T10:19:48;19.60;99.90
22212;DHT22;11275;52.488;13.462;2023-08-06T10:22:16;19.40;99.90
22212;DHT22;11275;52.488;13.462;2023-08-06T10:24:56;19.50;99.90
22212;DHT22;11275;52.488;13.462;2023-08-06T10:30:32;19.70;99.90
22212;DHT22;11275;52.488;13.462;2023-08-06T10:33:03;19.80;99.90
22212;DHT22;11275;52.488;13.462;2023-08-06T10:37:58;20.00;99.90
22212;DHT22;11275;52.488;13.462;2023-08-06T10:40:24;20.20;99.90
22212;DHT22;11275;52.488;13.462;2023-08-06T10:42:51;20.30;99.90
22212;DHT22;11275;52.488;13.462;2023-08-06T10:45:21;20.40;99.90
22212;DHT22;11275;52.488;13.462;2023-08-06T10:47:49;20.40;99.90
22212;DHT22;11275;52.488;13.462;2023-08-06T10:50:16;20.40;99.90
22212;DHT22;11275;52.488;13.462;2023-08-06T10:52:47;20.30;99.90
22212;DHT22;11275;52.488;13.462;2023-08-06T10:55:26;20.30;99.90
22212;DHT22;11275;52.488;13.462;2023-08-06T10:57:53;20.20;99.90
22212;DHT22;11275;52.488;13.462;2023-08-06T11:00:22;20.20;99.90
22212;DHT22;11275;52.488;13.462;2023-08-06T11:02:52;20.30;99.90
22212;DHT22;11275;52.488;13.462;2023-08-06T11:05:18;20.30;99.90
22212;DHT22;11275;52.488;13.462;2023-08-06T11:07:44;20.30;99.90
22212;DHT22;11275;52.488;13.462;2023-08-06T11:10:13;20.20;99.90
22212;DHT22;11275;52.488;13.462;2023-08-06T11:12:39;20.20;99.90
22212;DHT22;11275;52.488;13.462;2023-08-06T11:15:06;20.30;99.90
22212;DHT22;11275;52.488;13.462;2023-08-06T11:17:33;20.40;99.90
22212;DHT22;11275;52.488;13.462;2023-08-06T11:20:03;20.40;99.90
22212;DHT22;11275;52.488;13.462;2023-08-06T11:22:31;20.30;99.90
22212;DHT22;11275;52.488;13.462;2023-08-06T11:24:57;20.20;99.90
22212;DHT22;11275;52.488;13.462;2023-08-06T11:27:25;20.20;99.90
22212;DHT22;11275;52.488;13.462;2023-08-06T11:29:52;20.20;99.90
22212;DHT22;11275;52.488;13.462;2023-08-06T11:32:17;20.30;99.90
22212;DHT22;11275;52.488;13.462;2023-08-06T11:34:43;20.40;99.90
22212;DHT22;11275;52.488;13.462;2023-08-06T11:37:09;20.20;99.90
22212;DHT22;11275;52.488;13.462;2023-08-06T11:39:37;20.30;99.90
22212;DHT22;11275;52.488;13.462;2023-08-06T11:42:04;20.20;99.90
22212;DHT22;11275;52.488;13.462;2023-08-06T11:44:31;20.10;99.90
22212;DHT22;11275;52.488;13.462;2023-08-06T11:47:00;20.10;99.90
22212;DHT22;11275;52.488;13.462;2023-08-06T11:52:19;20.20;99.90
22212;DHT22;11275;52.488;13.462;2023-08-06T11:57:29;20.40;99.90
22212;DHT22;11275;52.488;13.462;2023-08-06T11:59:54;20.50;99.90
22212;DHT22;11275;52.488;13.462;2023-08-06T12:02:21;20.60;99.90
22212;DHT22;11275;52.488;13.462;2023-08-06T12:05:20;20.70;99.90
22212;DHT22;11275;52.488;13.462;2023-08-06T12:07:54;20.70;99.90
22212;DHT22;11275;52.488;13.462;2023-08-06T12:10:21;20.80;99.90
22212;DHT22;11275;52.488;13.462;2023-08-06T12:12:47;20.80;99.90
22212;DHT22;11275;52.488;13.462;2023-08-06T12:15:13;20.80;99.90
22212;DHT22;11275;52.488;13.462;2023-08-06T12:17:39;20.80;99.90
22212;DHT22;11275;52.488;13.462;2023-08-06T12:20:06;20.80;99.90
22212;DHT22;11275;52.488;13.462;2023-08-06T12:22:33;20.80;99.90
22212;DHT22;11275;52.488;13.462;2023-08-06T12:25:04;20.80;99.90
22212;DHT22;11275;52.488;13.462;2023-08-06T12:27:40;20.90;99.90
22212;DHT22;11275;52.488;13.462;2023-08-06T12:30:07;20.90;99.90
22212;DHT22;11275;52.488;13.462;2023-08-06T12:32:34;20.90;99.90
22212;DHT22;11275;52.488;13.462;2023-08-06T12:35:00;20.90;99.90
22212;DHT22;11275;52.488;13.462;2023-08-06T12:37:26;20.90;99.90
22212;DHT22;11275;52.488;13.462;2023-08-06T12:39:52;20.80;99.90
22212;DHT22;11275;52.488;13.462;2023-08-06T12:42:18;20.70;99.90
22212;DHT22;11275;52.488;13.462;2023-08-06T12:44:44;20.70;99.90
22212;DHT22;11275;52.488;13.462;2023-08-06T12:47:10;20.70;99.90
22212;DHT22;11275;52.488;13.462;2023-08-06T12:49:35;20.60;99.90
22212;DHT22;11275;52.488;13.462;2023-08-06T12:52:01;20.50;99.90
22212;DHT22;11275;52.488;13.462;2023-08-06T12:54:28;20.50;99.90
22212;DHT22;11275;52.488;13.462;2023-08-06T12:56:54;20.50;99.90
22212;DHT22;11275;52.488;13.462;2023-08-06T12:59:20;20.50;99.90
22212;DHT22;11275;52.488;13.462;2023-08-06T13:01:46;20.50;99.90
22212;DHT22;11275;52.488;13.462;2023-08-06T13:04:11;20.50;99.90
22212;DHT22;11275;52.488;13.462;2023-08-06T13:06:38;20.50;99.90
22212;DHT22;11275;52.488;13.462;2023-08-06T13:09:08;20.40;99.90
22212;DHT22;11275;52.488;13.462;2023-08-06T13:11:35;20.40;99.90
22212;DHT22;11275;52.488;13.462;2023-08-06T13:14:06;20.40;99.90
22212;DHT22;11275;52.488;13.462;2023-08-06T13:16:33;20.40;99.90
22212;DHT22;11275;52.488;13.462;2023-08-06T13:18:58;20.40;99.90
22212;DHT22;11275;52.488;13.462;2023-08-06T13:21:24;20.40;99.90
22212;DHT22;11275;52.488;13.462;2023-08-06T13:23:49;20.40;99.90
22212;DHT22;11275;52.488;13.462;2023-08-06T13:26:15;20.40;99.90
22212;DHT22;11275;52.488;13.462;2023-08-06T13:28:41;20.40;99.90
22212;DHT22;11275;52.488;13.462;2023-08-06T13:31:07;20.40;99.90
22212;DHT22;11275;52.488;13.462;2023-08-06T13:33:33;20.40;99.90
22212;DHT22;11275;52.488;13.462;2023-08-06T13:35:58;20.40;99.90
22212;DHT22;11275;52.488;13.462;2023-08-06T13:38:24;20.40;99.90
22212;DHT22;11275;52.488;13.462;2023-08-06T13:40:49;20.40;99.90
22212;DHT22;11275;52.488;13.462;2023-08-06T13:43:15;20.40;99.90
22212;DHT22;11275;52.488;13.462;2023-08-06T13:45:42;20.40;99.90
22212;DHT22;11275;52.488;13.462;2023-08-06T13:48:08;20.40;99.90
22212;DHT22;11275;52.488;13.462;2023-08-06T13:50:34;20.30;99.90
22212;DHT22;11275;52.488;13.462;2023-08-06T13:52:59;20.40;99.90
22212;DHT22;11275;52.488;13.462;2023-08-06T13:55:26;20.40;99.90
22212;DHT22;11275;52.488;13.462;2023-08-06T13:57:52;20.40;99.90
22212;DHT22;11275;52.488;13.462;2023-08-06T14:00:17;20.30;99.90
22212;DHT22;11275;52.488;13.462;2023-08-06T14:02:43;20.30;99.90
22212;DHT22;11275;52.488;13.462;2023-08-06T14:05:11;20.30;99.90
22212;DHT22;11275;52.488;13.462;2023-08-06T14:07:37;20.30;99.90
22212;DHT22;11275;52.488;13.462;2023-08-06T14:10:03;20.30;99.90
22212;DHT22;11275;52.488;13.462;2023-08-06T14:12:28;20.40;99.90
22212;DHT22;11275;52.488;13.462;2023-08-06T14:14:54;20.40;99.90
22212;DHT22;11275;52.488;13.462;2023-08-06T14:17:20;20.30;99.90
22212;DHT22;11275;52.488;13.462;2023-08-06T14:19:45;20.40;99.90
22212;DHT22;11275;52.488;13.462;2023-08-06T14:22:11;20.30;99.90
22212;DHT22;11275;52.488;13.462;2023-08-06T14:24:37;20.10;99.90
22212;DHT22;11275;52.488;13.462;2023-08-06T14:27:03;19.80;99.90
22212;DHT22;11275;52.488;13.462;2023-08-06T14:29:29;19.70;99.90
22212;DHT22;11275;52.488;13.462;2023-08-06T14:31:55;19.80;99.90
22212;DHT22;11275;52.488;13.462;2023-08-06T14:34:20;19.80;99.90
22212;DHT22;11275;52.488;13.462;2023-08-06T14:36:46;19.90;99.90
22212;DHT22;11275;52.488;13.462;2023-08-06T14:39:12;20.00;99.90
22212;DHT22;11275;52.488;13.462;2023-08-06T14:41:37;20.00;99.90
22212;DHT22;11275;52.488;13.462;2023-08-06T14:44:03;19.80;99.90
22212;DHT22;11275;52.488;13.462;2023-08-06T14:46:29;19.70;99.90
22212;DHT22;11275;52.488;13.462;2023-08-06T14:48:54;19.80;99.90
22212;DHT22;11275;52.488;13.462;2023-08-06T14:51:20;19.70;99.90
22212;DHT22;11275;52.488;13.462;2023-08-06T14:53:46;19.70;99.90
22212;DHT22;11275;52.488;13.462;2023-08-06T14:56:11;19.50;99.90
22212;DHT22;11275;52.488;13.462;2023-08-06T14:58:37;19.10;99.90
22212;DHT22;11275;52.488;13.462;2023-08-06T15:01:03;19.00;99.90
22212;DHT22;11275;52.488;13.462;2023-08-06T15:03:28;19.00;99.90
22212;DHT22;11275;52.488;13.462;2023-08-06T15:05:56;18.90;99.90
22212;DHT22;11275;52.488;13.462;2023-08-06T15:08:22;19.00;99.90
22212;DHT22;11275;52.488;13.462;2023-08-06T15:10:51;19.10;99.90
22212;DHT22;11275;52.488;13.462;2023-08-06T15:13:18;19.20;99.90
22212;DHT22;11275;52.488;13.462;2023-08-06T15:15:45;19.20;99.90
22212;DHT22;11275;52.488;13.462;2023-08-06T15:18:11;19.10;99.90
22212;DHT22;11275;52.488;13.462;2023-08-06T15:20:37;19.00;99.90
22212;DHT22;11275;52.488;13.462;2023-08-06T15:23:02;19.10;99.90
22212;DHT22;11275;52.488;13.462;2023-08-06T15:25:28;19.20;99.90
22212;DHT22;11275;52.488;13.462;2023-08-06T15:27:54;19.30;99.90